sensor_id;sensor_type;location;lat;lon;timestamp;pressure;altitude;pressure_sealevel;temperature;humidity
9141;BME280;46330;50.822;7.126;2023-01-28T00:00:51;102024.34;;;2.51;91.04
9141;BME280;46330;50.822;7.126;2023-01-28T00:03:19;102031.28;;;2.52;90.68
9141;BME280;46330;50.822;7.126;2023-01-28T00:05:47;102039.06;;;2.53;90.87
9141;BME280;46330;50.822;7.126;2023-01-28T00:08:15;102029.53;;;2.52;90.68
9141;BME280;46330;50.822;7.126;2023-01-28T00:10:45;102017.19;;;2.44;90.36
9141;BME280;46330;50.822;7.126;2023-01-28T00:13:13;102029.50;;;2.51;90.79
9141;BME280;46330;50.822;7.126;2023-01-28T00:15:41;102024.44;;;2.54;90.25
9141;BME280;46330;50.822;7.126;2023-01-28T00:18:10;102028.41;;;2.44;90.98
9141;BME280;46330;50.822;7.126;2023-01-28T00:20:38;102026.59;;;2.42;90.82
9141;BME280;46330;50.822;7.126;2023-01-28T00:23:06;102021.53;;;2.45;91.06
9141;BME280;46330;50.822;7.126;2023-01-28T00:25:33;102019.75;;;2.42;91.33
9141;BME280;46330;50.822;7.126;2023-01-28T00:28:03;102013.72;;;2.43;90.98
9141;BME280;46330;50.822;7.126;2023-01-28T00:30:31;102013.50;;;2.37;91.18
9141;BME280;46330;50.822;7.126;2023-01-28T00:32:59;102009.34;;;2.41;91.33
9141;BME280;46330;50.822;7.126;2023-01-28T00:35:27;102014.56;;;2.42;90.71
9141;BME280;46330;50.822;7.126;2023-01-28T00:37:55;102008.56;;;2.43;91.19
9141;BME280;46330;50.822;7.126;2023-01-28T00:40:26;102012.00;;;2.42;91.12
9141;BME280;46330;50.822;7.126;2023-01-28T00:42:55;102017.09;;;2.41;90.53
9141;BME280;46330;50.822;7.126;2023-01-28T00:45:25;102013.63;;;2.40;91.61
9141;BME280;46330;50.822;7.126;2023-01-28T00:47:53;102016.06;;;2.36;91.10
9141;BME280;46330;50.822;7.126;2023-01-28T00:50:21;102010.94;;;2.37;91.92
9141;BME280;46330;50.822;7.126;2023-01-28T00:52:51;102016.88;;;2.35;91.94
9141;BME280;46330;50.822;7.126;2023-01-28T00:55:19;102023.78;;;2.36;91.78
9141;BME280;46330;50.822;7.126;2023-01-28T00:57:47;102030.78;;;2.38;91.87
9141;BME280;46330;50.822;7.126;2023-01-28T01:00:16;102023.91;;;2.39;91.51
9141;BME280;46330;50.822;7.126;2023-01-28T01:02:49;102030.44;;;2.29;91.26
9141;BME280;46330;50.822;7.126;2023-01-28T01:05:17;102025.28;;;2.29;91.41
9141;BME280;46330;50.822;7.126;2023-01-28T01:07:45;102030.25;;;2.25;90.85
9141;BME280;46330;50.822;7.126;2023-01-28T01:10:16;102025.88;;;2.22;91.69
9141;BME280;46330;50.822;7.126;2023-01-28T01:12:45;102017.97;;;2.17;91.53
9141;BME280;46330;50.822;7.126;2023-01-28T01:15:14;102018.72;;;2.15;91.78
9141;BME280;46330;50.822;7.126;2023-01-28T01:17:45;102011.84;;;2.15;91.77
9141;BME280;46330;50.822;7.126;2023-01-28T01:20:18;102018.72;;;2.15;92.17
9141;BME280;46330;50.822;7.126;2023-01-28T01:22:46;102018.56;;;2.10;92.01
9141;BME280;46330;50.822;7.126;2023-01-28T01:25:16;102021.91;;;2.08;92.62
9141;BME280;46330;50.822;7.126;2023-01-28T01:27:46;102021.13;;;1.87;92.09
9141;BME280;46330;50.822;7.126;2023-01-28T01:30:15;102021.69;;;1.80;92.45
9141;BME280;46330;50.822;7.126;2023-01-28T01:32:43;102024.72;;;1.70;92.90
9141;BME280;46330;50.822;7.126;2023-01-28T01:35:11;102017.66;;;1.64;93.79
9141;BME280;46330;50.822;7.126;2023-01-28T01:37:42;102020.88;;;1.58;93.55
9141;BME280;46330;50.822;7.126;2023-01-28T01:40:11;102031.88;;;1.54;93.93
9141;BME280;46330;50.822;7.126;2023-01-28T01:42:39;102028.97;;;1.47;93.96
9141;BME280;46330;50.822;7.126;2023-01-28T01:45:11;102028.81;;;1.42;94.47
9141;BME280;46330;50.822;7.126;2023-01-28T01:47:43;102031.97;;;1.35;94.27
9141;BME280;46330;50.822;7.126;2023-01-28T01:50:21;102024.31;;;1.37;94.59
9141;BME280;46330;50.822;7.126;2023-01-28T01:52:55;102023.28;;;1.33;94.29
9141;BME280;46330;50.822;7.126;2023-01-28T01:55:26;102021.41;;;1.29;94.97
9141;BME280;46330;50.822;7.126;2023-01-28T01:58:01;102021.28;;;1.26;95.08
9141;BME280;46330;50.822;7.126;2023-01-28T02:00:31;102037.25;;;1.18;95.69
9141;BME280;46330;50.822;7.126;2023-01-28T02:03:00;102039.50;;;1.10;96.79
9141;BME280;46330;50.822;7.126;2023-01-28T02:05:28;102040.06;;;1.03;96.28
9141;BME280;46330;50.822;7.126;2023-01-28T02:07:58;102045.84;;;0.97;97.12
9141;BME280;46330;50.822;7.126;2023-01-28T02:10:48;102043.00;;;0.91;97.64
9141;BME280;46330;50.822;7.126;2023-01-28T02:13:21;102051.53;;;0.90;97.23
9141;BME280;46330;50.822;7.126;2023-01-28T02:15:51;102044.53;;;0.86;97.08
9141;BME280;46330;50.822;7.126;2023-01-28T02:18:21;102047.16;;;0.88;97.53
9141;BME280;46330;50.822;7.126;2023-01-28T02:24:09;102057.91;;;0.78;97.68
9141;BME280;46330;50.822;7.126;2023-01-28T02:27:01;102054.34;;;0.76;96.88
9141;BME280;46330;50.822;7.126;2023-01-28T02:29:43;102051.59;;;0.71;96.36
9141;BME280;46330;50.822;7.126;2023-01-28T02:32:19;102054.03;;;0.68;96.58
9141;BME280;46330;50.822;7.126;2023-01-28T02:34:55;102042.72;;;0.65;96.15
9141;BME280;46330;50.822;7.126;2023-01-28T02:37:28;102055.19;;;0.56;95.84
9141;BME280;46330;50.822;7.126;2023-01-28T02:40:02;102050.63;;;0.50;96.09
9141;BME280;46330;50.822;7.126;2023-01-28T02:42:36;102050.25;;;0.41;97.06
9141;BME280;46330;50.822;7.126;2023-01-28T02:45:14;102051.81;;;0.37;96.90
9141;BME280;46330;50.822;7.126;2023-01-28T02:47:43;102051.53;;;0.31;97.16
9141;BME280;46330;50.822;7.126;2023-01-28T02:50:32;102057.16;;;0.23;96.47
9141;BME280;46330;50.822;7.126;2023-01-28T02:53:12;102060.31;;;0.17;97.66
9141;BME280;46330;50.822;7.126;2023-01-28T02:56:09;102057.53;;;0.13;99.10
9141;BME280;46330;50.822;7.126;2023-01-28T02:58:44;102063.44;;;0.10;99.88
9141;BME280;46330;50.822;7.126;2023-01-28T03:01:21;102070.72;;;0.01;99.79
9141;BME280;46330;50.822;7.126;2023-01-28T03:03:57;102072.06;;;-0.07;100.00
9141;BME280;46330;50.822;7.126;2023-01-28T03:06:30;102063.38;;;-0.09;100.00
9141;BME280;46330;50.822;7.126;2023-01-28T03:09:03;102070.91;;;-0.14;100.00
9141;BME280;46330;50.822;7.126;2023-01-28T03:11:54;102072.44;;;-0.17;100.00
9141;BME280;46330;50.822;7.126;2023-01-28T03:14:42;102073.25;;;-0.18;100.00
9141;BME280;46330;50.822;7.126;2023-01-28T03:17:36;102080.66;;;-0.24;100.00
9141;BME280;46330;50.822;7.126;2023-01-28T03:20:26;102084.13;;;-0.24;100.00
9141;BME280;46330;50.822;7.126;2023-01-28T03:23:17;102095.28;;;-0.23;100.00
9141;BME280;46330;50.822;7.126;2023-01-28T03:26:06;102092.44;;;-0.29;100.00
9141;BME280;46330;50.822;7.126;2023-01-28T03:28:54;102088.91;;;-0.31;100.00
9141;BME280;46330;50.822;7.126;2023-01-28T03:31:49;102089.47;;;-0.37;99.96
9141;BME280;46330;50.822;7.126;2023-01-28T03:34:36;102098.72;;;-0.40;100.00
9141;BME280;46330;50.822;7.126;2023-01-28T03:37:22;102096.84;;;-0.44;100.00
9141;BME280;46330;50.822;7.126;2023-01-28T03:40:06;102095.81;;;-0.48;100.00
9141;BME280;46330;50.822;7.126;2023-01-28T03:42:34;102108.50;;;-0.51;100.00
9141;BME280;46330;50.822;7.126;2023-01-28T03:45:22;102104.91;;;-0.55;100.00
9141;BME280;46330;50.822;7.126;2023-01-28T03:47:50;102109.75;;;-0.61;100.00
9141;BME280;46330;50.822;7.126;2023-01-28T03:50:20;102105.25;;;-0.65;100.00
9141;BME280;46330;50.822;7.126;2023-01-28T03:52:56;102101.00;;;-0.64;100.00
9141;BME280;46330;50.822;7.126;2023-01-28T03:55:48;102101.59;;;-0.70;100.00
9141;BME280;46330;50.822;7.126;2023-01-28T03:58:16;102102.38;;;-0.71;100.00
9141;BME280;46330;50.822;7.126;2023-01-28T04:00:45;102104.88;;;-0.72;100.00
9141;BME280;46330;50.822;7.126;2023-01-28T04:03:15;102110.72;;;-0.75;100.00
9141;BME280;46330;50.822;7.126;2023-01-28T04:05:59;102107.31;;;-0.75;100.00
9141;BME280;46330;50.822;7.126;2023-01-28T04:08:50;102114.47;;;-0.86;100.00
9141;BME280;46330;50.822;7.126;2023-01-28T04:11:29;102118.81;;;-0.85;100.00
9141;BME280;46330;50.822;7.126;2023-01-28T04:14:00;102123.63;;;-0.91;100.00
9141;BME280;46330;50.822;7.126;2023-01-28T04:16:40;102126.75;;;-0.96;100.00
9141;BME280;46330;50.822;7.126;2023-01-28T04:19:08;102124.91;;;-0.99;100.00
9141;BME280;46330;50.822;7.126;2023-01-28T04:21:39;102117.88;;;-1.03;100.00
9141;BME280;46330;50.822;7.126;2023-01-28T04:24:07;102122.13;;;-1.03;100.00
9141;BME280;46330;50.822;7.126;2023-01-28T04:26:35;102129.84;;;-1.03;100.00
9141;BME280;46330;50.822;7.126;2023-01-28T04:29:04;102125.50;;;-1.04;100.00
9141;BME280;46330;50.822;7.126;2023-01-28T04:31:34;102131.50;;;-1.04;100.00
9141;BME280;46330;50.822;7.126;2023-01-28T04:34:35;102126.38;;;-1.04;100.00
9141;BME280;46330;50.822;7.126;2023-01-28T04:37:14;102122.13;;;-1.03;100.00
9141;BME280;46330;50.822;7.126;2023-01-28T04:40:00;102131.50;;;-1.04;100.00
9141;BME280;46330;50.822;7.126;2023-01-28T04:43:00;102119.47;;;-1.05;100.00
9141;BME280;46330;50.822;7.126;2023-01-28T04:45:45;102132.47;;;-1.02;100.00
9141;BME280;46330;50.822;7.126;2023-01-28T04:48:37;102138.41;;;-1.03;100.00
9141;BME280;46330;50.822;7.126;2023-01-28T04:51:32;102135.03;;;-1.02;100.00
9141;BME280;46330;50.822;7.126;2023-01-28T04:54:20;102138.47;;;-1.01;100.00
9141;BME280;46330;50.822;7.126;2023-01-28T04:56:48;102138.41;;;-1.03;100.00
9141;BME280;46330;50.822;7.126;2023-01-28T04:59:17;102140.25;;;-1.00;100.00
9141;BME280;46330;50.822;7.126;2023-01-28T05:01:45;102148.84;;;-1.00;100.00
9141;BME280;46330;50.822;7.126;2023-01-28T05:04:13;102148.34;;;-0.93;100.00
9141;BME280;46330;50.822;7.126;2023-01-28T05:06:43;102139.84;;;-0.92;100.00
9141;BME280;46330;50.822;7.126;2023-01-28T05:09:16;102139.94;;;-0.90;100.00
9141;BME280;46330;50.822;7.126;2023-01-28T05:11:45;102135.91;;;-0.85;100.00
9141;BME280;46330;50.822;7.126;2023-01-28T05:14:14;102126.50;;;-0.85;100.00
9141;BME280;46330;50.822;7.126;2023-01-28T05:16:49;102141.03;;;-0.85;100.00
9141;BME280;46330;50.822;7.126;2023-01-28T05:19:18;102138.69;;;-0.81;100.00
9141;BME280;46330;50.822;7.126;2023-01-28T05:21:46;102149.78;;;-0.82;100.00
9141;BME280;46330;50.822;7.126;2023-01-28T05:24:27;102137.56;;;-0.86;100.00
9141;BME280;46330;50.822;7.126;2023-01-28T05:26:56;102147.69;;;-0.89;100.00
9141;BME280;46330;50.822;7.126;2023-01-28T05:29:25;102146.38;;;-0.81;100.00
9141;BME280;46330;50.822;7.126;2023-01-28T05:31:53;102151.63;;;-0.79;100.00
9141;BME280;46330;50.822;7.126;2023-01-28T05:34:21;102146.78;;;-0.73;100.00
9141;BME280;46330;50.822;7.126;2023-01-28T05:36:50;102147.03;;;-0.69;100.00
9141;BME280;46330;50.822;7.126;2023-01-28T05:39:29;102147.97;;;-0.67;100.00
9141;BME280;46330;50.822;7.126;2023-01-28T05:41:59;102139.53;;;-0.64;100.00
9141;BME280;46330;50.822;7.126;2023-01-28T05:44:28;102136.16;;;-0.63;100.00
9141;BME280;46330;50.822;7.126;2023-01-28T05:47:17;102131.25;;;-0.59;100.00
9141;BME280;46330;50.822;7.126;2023-01-28T05:50:01;102145.88;;;-0.58;100.00
9141;BME280;46330;50.822;7.126;2023-01-28T05:53:04;102154.50;;;-0.56;100.00
9141;BME280;46330;50.822;7.126;2023-01-28T05:55:33;102159.66;;;-0.56;100.00
9141;BME280;46330;50.822;7.126;2023-01-28T05:58:03;102162.31;;;-0.54;100.00
9141;BME280;46330;50.822;7.126;2023-01-28T06:00:31;102155.66;;;-0.50;100.00
9141;BME280;46330;50.822;7.126;2023-01-28T06:03:02;102170.47;;;-0.45;100.00
9141;BME280;46330;50.822;7.126;2023-01-28T06:05:30;102170.47;;;-0.45;100.00
9141;BME280;46330;50.822;7.126;2023-01-28T06:07:59;102170.47;;;-0.45;100.00
9141;BME280;46330;50.822;7.126;2023-01-28T06:10:27;102168.22;;;-0.39;100.00
9141;BME280;46330;50.822;7.126;2023-01-28T06:12:56;102174.25;;;-0.38;100.00
9141;BME280;46330;50.822;7.126;2023-01-28T06:15:25;102164.59;;;-0.42;100.00
9141;BME280;46330;50.822;7.126;2023-01-28T06:18:11;102164.75;;;-0.39;100.00
9141;BME280;46330;50.822;7.126;2023-01-28T06:20:39;102172.72;;;-0.35;100.00
9141;BME280;46330;50.822;7.126;2023-01-28T06:23:07;102177.91;;;-0.33;100.00
9141;BME280;46330;50.822;7.126;2023-01-28T06:25:35;102173.00;;;-0.29;100.00
9141;BME280;46330;50.822;7.126;2023-01-28T06:28:08;102181.66;;;-0.27;99.93
9141;BME280;46330;50.822;7.126;2023-01-28T06:30:37;102177.56;;;-0.23;99.38
9141;BME280;46330;50.822;7.126;2023-01-28T06:33:05;102176.03;;;-0.20;99.52
9141;BME280;46330;50.822;7.126;2023-01-28T06:35:34;102177.94;;;-0.16;99.02
9141;BME280;46330;50.822;7.126;2023-01-28T06:38:02;102176.16;;;-0.17;98.63
9141;BME280;46330;50.822;7.126;2023-01-28T06:40:32;102184.03;;;-0.14;97.91
9141;BME280;46330;50.822;7.126;2023-01-28T06:43:00;102189.31;;;-0.11;98.82
9141;BME280;46330;50.822;7.126;2023-01-28T06:45:27;102183.38;;;-0.10;98.03
9141;BME280;46330;50.822;7.126;2023-01-28T06:47:57;102187.78;;;-0.07;97.96
9141;BME280;46330;50.822;7.126;2023-01-28T06:50:25;102196.44;;;-0.05;97.90
9141;BME280;46330;50.822;7.126;2023-01-28T06:52:53;102181.09;;;-0.04;97.61
9141;BME280;46330;50.822;7.126;2023-01-28T06:55:20;102185.41;;;-0.03;96.98
9141;BME280;46330;50.822;7.126;2023-01-28T06:57:49;102195.03;;;0.02;96.64
9141;BME280;46330;50.822;7.126;2023-01-28T07:00:17;102189.16;;;0.04;96.58
9141;BME280;46330;50.822;7.126;2023-01-28T07:02:46;102199.59;;;0.07;96.74
9141;BME280;46330;50.822;7.126;2023-01-28T07:05:16;102196.28;;;0.10;96.14
9141;BME280;46330;50.822;7.126;2023-01-28T07:07:44;102187.84;;;0.12;96.16
9141;BME280;46330;50.822;7.126;2023-01-28T07:10:12;102195.72;;;0.15;95.50
9141;BME280;46330;50.822;7.126;2023-01-28T07:12:40;102194.84;;;0.15;95.99
9141;BME280;46330;50.822;7.126;2023-01-28T07:15:11;102199.97;;;0.15;95.61
9141;BME280;46330;50.822;7.126;2023-01-28T07:17:41;102197.56;;;0.18;95.94
9141;BME280;46330;50.822;7.126;2023-01-28T07:20:10;102192.47;;;0.19;95.89
9141;BME280;46330;50.822;7.126;2023-01-28T07:22:43;102185.63;;;0.20;95.24
9141;BME280;46330;50.822;7.126;2023-01-28T07:25:12;102207.91;;;0.19;95.12
9141;BME280;46330;50.822;7.126;2023-01-28T07:27:46;102202.84;;;0.21;95.02
9141;BME280;46330;50.822;7.126;2023-01-28T07:30:15;102201.28;;;0.24;95.12
9141;BME280;46330;50.822;7.126;2023-01-28T07:32:44;102191.94;;;0.26;95.01
9141;BME280;46330;50.822;7.126;2023-01-28T07:35:12;102210.09;;;0.29;95.47
9141;BME280;46330;50.822;7.126;2023-01-28T07:37:50;102199.91;;;0.31;95.45
9141;BME280;46330;50.822;7.126;2023-01-28T07:40:18;102199.06;;;0.32;95.64
9141;BME280;46330;50.822;7.126;2023-01-28T07:42:46;102212.97;;;0.35;95.17
9141;BME280;46330;50.822;7.126;2023-01-28T07:45:14;102214.75;;;0.36;94.75
9141;BME280;46330;50.822;7.126;2023-01-28T07:47:42;102215.69;;;0.38;95.44
9141;BME280;46330;50.822;7.126;2023-01-28T07:50:10;102220.09;;;0.41;95.90
9141;BME280;46330;50.822;7.126;2023-01-28T07:52:39;102229.66;;;0.43;96.02
9141;BME280;46330;50.822;7.126;2023-01-28T07:55:11;102221.81;;;0.40;94.61
9141;BME280;46330;50.822;7.126;2023-01-28T07:57:47;102227.22;;;0.46;94.17
9141;BME280;46330;50.822;7.126;2023-01-28T08:00:16;102216.09;;;0.47;93.75
9141;BME280;46330;50.822;7.126;2023-01-28T08:02:45;102221.34;;;0.49;94.28
9141;BME280;46330;50.822;7.126;2023-01-28T08:05:15;102225.59;;;0.48;94.22
9141;BME280;46330;50.822;7.126;2023-01-28T08:07:44;102209.34;;;0.49;94.26
9141;BME280;46330;50.822;7.126;2023-01-28T08:10:15;102218.81;;;0.50;93.04
9141;BME280;46330;50.822;7.126;2023-01-28T08:12:51;102213.00;;;0.54;93.05
9141;BME280;46330;50.822;7.126;2023-01-28T08:15:19;102216.75;;;0.61;92.88
9141;BME280;46330;50.822;7.126;2023-01-28T08:17:47;102217.09;;;0.69;92.39
9141;BME280;46330;50.822;7.126;2023-01-28T08:20:15;102216.50;;;0.74;94.11
9141;BME280;46330;50.822;7.126;2023-01-28T08:22:44;102219.16;;;0.76;93.28
9141;BME280;46330;50.822;7.126;2023-01-28T08:25:12;102221.81;;;0.77;91.88
9141;BME280;46330;50.822;7.126;2023-01-28T08:27:41;102228.13;;;0.84;92.30
9141;BME280;46330;50.822;7.126;2023-01-28T08:30:10;102222.97;;;0.84;91.40
9141;BME280;46330;50.822;7.126;2023-01-28T08:32:39;102232.53;;;0.86;92.70
9141;BME280;46330;50.822;7.126;2023-01-28T08:35:07;102239.34;;;0.86;92.66
9141;BME280;46330;50.822;7.126;2023-01-28T08:37:35;102232.56;;;0.88;92.77
9141;BME280;46330;50.822;7.126;2023-01-28T08:40:04;102241.31;;;0.91;91.69
9141;BME280;46330;50.822;7.126;2023-01-28T08:42:32;102236.84;;;0.87;91.84
9141;BME280;46330;50.822;7.126;2023-01-28T08:45:01;102234.25;;;0.87;92.19
9141;BME280;46330;50.822;7.126;2023-01-28T08:47:29;102236.50;;;0.80;90.34
9141;BME280;46330;50.822;7.126;2023-01-28T08:49:57;102235.91;;;0.85;91.11
9141;BME280;46330;50.822;7.126;2023-01-28T08:52:26;102231.81;;;0.90;91.18
9141;BME280;46330;50.822;7.126;2023-01-28T08:54:56;102236.25;;;0.93;90.96
9141;BME280;46330;50.822;7.126;2023-01-28T08:57:24;102244.03;;;0.94;91.18
9141;BME280;46330;50.822;7.126;2023-01-28T08:59:52;102244.16;;;0.97;90.16
9141;BME280;46330;50.822;7.126;2023-01-28T09:02:22;102253.06;;;1.04;90.46
9141;BME280;46330;50.822;7.126;2023-01-28T09:04:58;102249.06;;;1.11;90.15
9141;BME280;46330;50.822;7.126;2023-01-28T09:07:26;102256.03;;;1.13;89.45
9141;BME280;46330;50.822;7.126;2023-01-28T09:09:55;102258.50;;;1.10;88.60
9141;BME280;46330;50.822;7.126;2023-01-28T09:12:24;102259.09;;;1.04;88.82
9141;BME280;46330;50.822;7.126;2023-01-28T09:14:53;102261.88;;;1.09;87.96
9141;BME280;46330;50.822;7.126;2023-01-28T09:17:22;102264.44;;;1.09;87.45
9141;BME280;46330;50.822;7.126;2023-01-28T09:19:50;102257.69;;;1.11;88.00
9141;BME280;46330;50.822;7.126;2023-01-28T09:22:18;102270.75;;;1.16;89.02
9141;BME280;46330;50.822;7.126;2023-01-28T09:24:46;102275.91;;;1.16;88.88
9141;BME280;46330;50.822;7.126;2023-01-28T09:27:14;102270.69;;;1.14;86.33
9141;BME280;46330;50.822;7.126;2023-01-28T09:29:43;102277.50;;;1.12;86.36
9141;BME280;46330;50.822;7.126;2023-01-28T09:32:11;102281.63;;;1.08;86.33
9141;BME280;46330;50.822;7.126;2023-01-28T09:34:40;102291.31;;;1.14;86.96
9141;BME280;46330;50.822;7.126;2023-01-28T09:37:10;102302.44;;;1.13;85.82
9141;BME280;46330;50.822;7.126;2023-01-28T09:39:37;102298.78;;;1.08;85.25
9141;BME280;46330;50.822;7.126;2023-01-28T09:42:19;102299.25;;;1.19;84.62
9141;BME280;46330;50.822;7.126;2023-01-28T09:45:00;102301.53;;;1.13;85.26
9141;BME280;46330;50.822;7.126;2023-01-28T09:47:32;102302.69;;;1.19;84.93
9141;BME280;46330;50.822;7.126;2023-01-28T09:50:07;102307.56;;;1.31;85.03
9141;BME280;46330;50.822;7.126;2023-01-28T09:52:38;102313.38;;;1.27;83.95
9141;BME280;46330;50.822;7.126;2023-01-28T09:55:16;102317.16;;;1.35;85.57
9141;BME280;46330;50.822;7.126;2023-01-28T09:57:49;102316.41;;;1.37;85.08
9141;BME280;46330;50.822;7.126;2023-01-28T10:00:21;102322.13;;;1.30;84.39
9141;BME280;46330;50.822;7.126;2023-01-28T10:03:00;102316.00;;;1.28;83.09
9141;BME280;46330;50.822;7.126;2023-01-28T10:05:41;102321.50;;;1.36;83.15
9141;BME280;46330;50.822;7.126;2023-01-28T10:08:24;102321.50;;;1.36;83.26
9141;BME280;46330;50.822;7.126;2023-01-28T10:11:01;102324.75;;;1.32;83.77
9141;BME280;46330;50.822;7.126;2023-01-28T10:13:41;102342.25;;;1.20;82.48
9141;BME280;46330;50.822;7.126;2023-01-28T10:16:19;102334.50;;;1.20;83.16
9141;BME280;46330;50.822;7.126;2023-01-28T10:18:54;102336.63;;;1.28;82.84
9141;BME280;46330;50.822;7.126;2023-01-28T10:21:28;102336.19;;;1.37;83.44
9141;BME280;46330;50.822;7.126;2023-01-28T10:24:02;102326.13;;;1.43;82.46
9141;BME280;46330;50.822;7.126;2023-01-28T10:26:33;102331.72;;;1.34;82.84
9141;BME280;46330;50.822;7.126;2023-01-28T10:29:08;102323.41;;;1.40;81.82
9141;BME280;46330;50.822;7.126;2023-01-28T10:31:42;102321.97;;;1.46;81.95
9141;BME280;46330;50.822;7.126;2023-01-28T10:34:13;102327.22;;;1.48;81.10
9141;BME280;46330;50.822;7.126;2023-01-28T10:36:45;102323.28;;;1.37;81.82
9141;BME280;46330;50.822;7.126;2023-01-28T10:39:14;102323.34;;;1.38;81.33
9141;BME280;46330;50.822;7.126;2023-01-28T10:41:43;102330.72;;;1.50;82.25
9141;BME280;46330;50.822;7.126;2023-01-28T10:44:30;102330.06;;;1.54;80.60
9141;BME280;46330;50.822;7.126;2023-01-28T10:47:02;102333.44;;;1.53;80.68
9141;BME280;46330;50.822;7.126;2023-01-28T10:49:31;102333.31;;;1.50;80.32
9141;BME280;46330;50.822;7.126;2023-01-28T10:52:11;102332.38;;;1.48;79.02
9141;BME280;46330;50.822;7.126;2023-01-28T10:54:40;102335.75;;;1.47;79.00
9141;BME280;46330;50.822;7.126;2023-01-28T10:57:10;102326.94;;;1.61;79.18
9141;BME280;46330;50.822;7.126;2023-01-28T10:59:39;102322.28;;;1.52;78.90
9141;BME280;46330;50.822;7.126;2023-01-28T11:02:23;102322.53;;;1.39;78.01
9141;BME280;46330;50.822;7.126;2023-01-28T11:05:05;102324.53;;;1.46;77.94
9141;BME280;46330;50.822;7.126;2023-01-28T11:07:35;102328.00;;;1.47;77.57
9141;BME280;46330;50.822;7.126;2023-01-28T11:10:23;102328.75;;;1.44;77.55
9141;BME280;46330;50.822;7.126;2023-01-28T11:12:55;102332.44;;;1.49;76.71
9141;BME280;46330;50.822;7.126;2023-01-28T11:15:24;102326.72;;;1.56;76.32
9141;BME280;46330;50.822;7.126;2023-01-28T11:17:55;102331.63;;;1.70;76.23
9141;BME280;46330;50.822;7.126;2023-01-28T11:20:26;102324.81;;;1.72;76.21
9141;BME280;46330;50.822;7.126;2023-01-28T11:22:56;102330.09;;;1.75;75.71
9141;BME280;46330;50.822;7.126;2023-01-28T11:25:28;102310.44;;;1.77;74.69
9141;BME280;46330;50.822;7.126;2023-01-28T11:27:58;102320.00;;;1.79;73.37
9141;BME280;46330;50.822;7.126;2023-01-28T11:30:29;102319.06;;;1.77;74.40
9141;BME280;46330;50.822;7.126;2023-01-28T11:33:06;102320.13;;;1.82;73.72
9141;BME280;46330;50.822;7.126;2023-01-28T11:35:39;102319.25;;;1.82;72.52
9141;BME280;46330;50.822;7.126;2023-01-28T11:38:17;102322.38;;;1.75;73.83
9141;BME280;46330;50.822;7.126;2023-01-28T11:40:49;102312.94;;;1.75;74.30
9141;BME280;46330;50.822;7.126;2023-01-28T11:43:19;102320.88;;;1.80;74.77
9141;BME280;46330;50.822;7.126;2023-01-28T11:45:53;102321.81;;;1.82;73.43
9141;BME280;46330;50.822;7.126;2023-01-28T11:48:30;102319.31;;;1.83;72.98
9141;BME280;46330;50.822;7.126;2023-01-28T11:51:16;102324.81;;;1.72;72.09
9141;BME280;46330;50.822;7.126;2023-01-28T11:54:12;102327.00;;;1.62;72.48
9141;BME280;46330;50.822;7.126;2023-01-28T11:56:51;102336.00;;;1.53;71.00
9141;BME280;46330;50.822;7.126;2023-01-28T11:59:34;102327.53;;;1.75;71.37
9141;BME280;46330;50.822;7.126;2023-01-28T12:02:17;102331.75;;;1.73;72.49
9141;BME280;46330;50.822;7.126;2023-01-28T12:05:07;102332.63;;;1.73;71.71
9141;BME280;46330;50.822;7.126;2023-01-28T12:07:45;102325.16;;;1.79;71.60
9141;BME280;46330;50.822;7.126;2023-01-28T12:10:23;102321.50;;;1.74;71.59
9141;BME280;46330;50.822;7.126;2023-01-28T12:13:06;102322.59;;;1.60;71.57
9141;BME280;46330;50.822;7.126;2023-01-28T12:22:12;102302.84;;;1.60;71.30
9141;BME280;46330;50.822;7.126;2023-01-28T12:25:04;102310.03;;;1.68;71.12
9141;BME280;46330;50.822;7.126;2023-01-28T12:27:43;102305.06;;;1.72;70.76
9141;BME280;46330;50.822;7.126;2023-01-28T12:30:22;102312.06;;;1.75;71.63
9141;BME280;46330;50.822;7.126;2023-01-28T12:35:53;102307.91;;;1.78;70.84
9141;BME280;46330;50.822;7.126;2023-01-28T12:38:36;102304.69;;;1.84;69.53
9141;BME280;46330;50.822;7.126;2023-01-28T12:41:09;102302.28;;;1.87;70.99
9141;BME280;46330;50.822;7.126;2023-01-28T12:43:51;102303.63;;;1.79;69.53
9141;BME280;46330;50.822;7.126;2023-01-28T12:46:29;102304.09;;;1.89;69.28
9141;BME280;46330;50.822;7.126;2023-01-28T12:49:02;102307.38;;;2.06;68.95
9141;BME280;46330;50.822;7.126;2023-01-28T12:51:37;102303.63;;;1.79;69.39
9141;BME280;46330;50.822;7.126;2023-01-28T12:54:16;102302.47;;;1.91;69.20
9141;BME280;46330;50.822;7.126;2023-01-28T12:56:50;102300.47;;;2.05;69.30
9141;BME280;46330;50.822;7.126;2023-01-28T12:59:24;102301.78;;;1.95;68.63
9141;BME280;46330;50.822;7.126;2023-01-28T13:02:11;102310.06;;;1.88;69.54
9141;BME280;46330;50.822;7.126;2023-01-28T13:04:49;102306.72;;;1.91;69.02
9141;BME280;46330;50.822;7.126;2023-01-28T13:07:22;102303.91;;;1.85;69.68
9141;BME280;46330;50.822;7.126;2023-01-28T13:09:57;102297.31;;;1.91;67.71
9141;BME280;46330;50.822;7.126;2023-01-28T13:12:30;102295.75;;;1.95;69.05
9141;BME280;46330;50.822;7.126;2023-01-28T13:15:00;102290.31;;;1.89;69.25
9141;BME280;46330;50.822;7.126;2023-01-28T13:17:31;102273.06;;;1.88;67.85
9141;BME280;46330;50.822;7.126;2023-01-28T13:19:59;102269.56;;;1.86;68.48
9141;BME280;46330;50.822;7.126;2023-01-28T13:22:30;102277.72;;;1.76;68.94
9141;BME280;46330;50.822;7.126;2023-01-28T13:25:17;102276.31;;;1.84;67.71
9141;BME280;46330;50.822;7.126;2023-01-28T13:27:54;102277.59;;;1.93;67.24
9141;BME280;46330;50.822;7.126;2023-01-28T13:30:27;102266.19;;;1.68;66.42
9141;BME280;46330;50.822;7.126;2023-01-28T13:33:00;102271.06;;;2.01;66.33
9141;BME280;46330;50.822;7.126;2023-01-28T13:35:31;102264.22;;;2.02;66.61
9141;BME280;46330;50.822;7.126;2023-01-28T13:38:07;102271.38;;;2.30;65.74
9141;BME280;46330;50.822;7.126;2023-01-28T13:40:36;102266.50;;;2.58;64.90
9141;BME280;46330;50.822;7.126;2023-01-28T13:43:25;102254.41;;;2.57;64.58
9141;BME280;46330;50.822;7.126;2023-01-28T13:45:57;102260.03;;;2.69;64.83
9141;BME280;46330;50.822;7.126;2023-01-28T13:48:30;102246.88;;;2.85;64.53
9141;BME280;46330;50.822;7.126;2023-01-28T13:51:01;102230.16;;;2.53;64.00